createdAt,value
2023-05-02T00:02:07.829Z,82.10
2023-05-02T00:04:35.209Z,82.20
2023-05-02T00:07:02.553Z,83.10
2023-05-02T00:09:30.374Z,83.20
2023-05-02T00:11:57.558Z,83.10
2023-05-02T00:14:25.564Z,82.80
2023-05-02T00:16:52.881Z,82.50
2023-05-02T00:19:19.984Z,82.40
2023-05-02T00:21:50.135Z,81.80
2023-05-02T00:24:18.696Z,81.40
2023-05-02T00:26:46.254Z,81.20
2023-05-02T00:29:13.339Z,81.00
2023-05-02T00:31:43.577Z,80.60
2023-05-02T00:34:10.838Z,80.70
2023-05-02T00:36:37.946Z,80.50
2023-05-02T00:39:05.433Z,80.40
2023-05-02T00:41:32.545Z,80.60
2023-05-02T00:43:59.803Z,80.50
2023-05-02T00:46:27.142Z,80.60
2023-05-02T00:48:54.360Z,80.50
2023-05-02T00:51:21.559Z,80.50
2023-05-02T00:53:49.188Z,80.50
2023-05-02T00:56:16.362Z,80.50
2023-05-02T00:58:44.881Z,80.60
2023-05-02T01:01:54.106Z,80.70
2023-05-02T01:04:36.254Z,80.80
2023-05-02T01:07:35.796Z,80.80
2023-05-02T01:10:39.561Z,80.90
2023-05-02T01:13:12.672Z,80.80
2023-05-02T01:15:42.117Z,81.10
2023-05-02T01:18:13.144Z,80.80
2023-05-02T01:20:45.023Z,80.90
2023-05-02T01:24:01.505Z,80.90
2023-05-02T01:26:43.036Z,81.00
2023-05-02T01:29:12.007Z,81.10
2023-05-02T01:31:46.071Z,80.90
2023-05-02T01:34:13.341Z,81.00
2023-05-02T01:36:46.964Z,81.30
2023-05-02T01:39:20.586Z,81.40
2023-05-02T01:41:52.061Z,81.50
2023-05-02T01:44:22.168Z,81.50
2023-05-02T01:46:52.030Z,81.70
2023-05-02T01:49:21.105Z,81.90
2023-05-02T01:51:50.795Z,82.10
2023-05-02T01:54:20.601Z,82.20
2023-05-02T01:56:49.317Z,82.10
2023-05-02T01:59:20.968Z,82.10
2023-05-02T02:01:50.677Z,82.20
2023-05-02T02:04:22.038Z,82.30
2023-05-02T02:07:02.657Z,82.10
2023-05-02T02:09:31.124Z,82.10
2023-05-02T02:12:27.416Z,82.00
2023-05-02T02:15:04.170Z,82.10
2023-05-02T02:17:43.499Z,82.20
2023-05-02T02:20:12.450Z,82.40
2023-05-02T02:22:43.124Z,82.40
2023-05-02T02:25:17.100Z,82.40
2023-05-02T02:27:44.480Z,82.70
2023-05-02T02:30:12.336Z,82.90
2023-05-02T02:32:39.762Z,83.00
2023-05-02T02:35:07.493Z,83.20
2023-05-02T02:38:28.235Z,83.20
2023-05-02T02:41:10.388Z,83.30
2023-05-02T02:44:02.056Z,83.40
2023-05-02T02:46:55.172Z,83.50
2023-05-02T02:49:43.948Z,83.60
2023-05-02T02:52:37.308Z,83.70
2023-05-02T02:55:40.610Z,83.80
2023-05-02T02:58:46.023Z,83.80
2023-05-02T03:01:19.895Z,83.90
2023-05-02T03:03:49.817Z,84.10
2023-05-02T03:06:18.548Z,84.20
2023-05-02T03:08:45.829Z,84.10
2023-05-02T03:11:18.182Z,84.10
2023-05-02T03:13:45.413Z,84.50
2023-05-02T03:16:37.399Z,84.60
2023-05-02T03:19:08.480Z,84.70
2023-05-02T03:21:36.313Z,84.90
2023-05-02T03:24:10.418Z,84.80
2023-05-02T03:26:37.638Z,84.70
2023-05-02T03:29:06.765Z,84.60
2023-05-02T03:31:38.591Z,84.50
2023-05-02T03:34:06.256Z,84.30
2023-05-02T03:36:34.402Z,84.20
2023-05-02T03:39:02.232Z,84.20
2023-05-02T03:41:30.173Z,84.00
2023-05-02T03:44:03.635Z,84.10
2023-05-02T03:46:31.607Z,84.00
2023-05-02T03:48:59.089Z,84.10
2023-05-02T03:51:26.801Z,84.10
2023-05-02T03:53:56.534Z,84.10
2023-05-02T03:56:24.326Z,84.10
2023-05-02T03:59:01.861Z,84.10
2023-05-02T04:01:28.952Z,84.00
2023-05-02T04:03:57.919Z,83.90
2023-05-02T04:06:27.193Z,83.80
2023-05-02T04:08:59.611Z,83.80
2023-05-02T04:11:32.254Z,83.80
2023-05-02T04:13:59.631Z,83.80
2023-05-02T04:16:26.913Z,83.70
2023-05-02T04:18:54.209Z,83.60
2023-05-02T04:21:21.662Z,83.50
2023-05-02T04:23:48.839Z,83.50
2023-05-02T04:26:16.523Z,83.50
2023-05-02T04:28:50.718Z,83.40
2023-05-02T04:31:18.355Z,83.40
2023-05-02T04:33:48.892Z,83.40
2023-05-02T04:36:19.736Z,83.50
2023-05-02T04:38:47.434Z,83.40
2023-05-02T04:41:17.218Z,83.40
2023-05-02T04:43:50.066Z,83.20
2023-05-02T04:46:18.764Z,82.80
2023-05-02T04:48:46.566Z,82.50
2023-05-02T04:51:16.780Z,82.40
2023-05-02T04:53:46.256Z,82.60
2023-05-02T04:56:13.491Z,82.90
2023-05-02T04:58:40.654Z,82.60
2023-05-02T05:01:09.991Z,82.40
2023-05-02T05:03:38.118Z,82.40
2023-05-02T05:06:07.196Z,82.80
2023-05-02T05:08:34.764Z,82.80
2023-05-02T05:11:04.057Z,82.80
2023-05-02T05:13:31.945Z,82.90
2023-05-02T05:15:59.253Z,83.20
2023-05-02T05:18:29.302Z,83.30
2023-05-02T05:20:56.630Z,83.10
2023-05-02T05:23:23.740Z,83.10
2023-05-02T05:25:51.372Z,83.10
2023-05-02T05:28:19.150Z,82.80
2023-05-02T05:30:47.135Z,82.70
2023-05-02T05:33:18.728Z,82.90
2023-05-02T05:35:46.002Z,82.90
2023-05-02T05:38:13.069Z,82.90
2023-05-02T05:40:42.523Z,83.00
2023-05-02T05:43:10.340Z,83.00
2023-05-02T05:45:39.117Z,82.80
2023-05-02T05:48:07.155Z,83.00
2023-05-02T05:50:39.963Z,82.80
2023-05-02T05:53:07.120Z,82.60
2023-05-02T05:55:37.426Z,82.40
2023-05-02T05:58:06.186Z,82.30
2023-05-02T06:00:36.400Z,81.90
2023-05-02T06:03:04.396Z,81.90
2023-05-02T06:05:36.503Z,81.90
2023-05-02T06:08:03.902Z,81.90
2023-05-02T06:10:32.544Z,81.70
2023-05-02T06:12:59.891Z,81.90
2023-05-02T06:15:35.214Z,81.20
2023-05-02T06:18:04.277Z,81.00
2023-05-02T06:20:31.440Z,80.60
2023-05-02T06:22:59.439Z,80.80
2023-05-02T06:25:26.781Z,80.70
2023-05-02T06:27:53.901Z,80.70
2023-05-02T06:30:20.988Z,80.80
2023-05-02T06:32:48.100Z,81.10
2023-05-02T06:35:15.275Z,81.20
2023-05-02T06:37:42.462Z,80.30
2023-05-02T06:40:14.615Z,78.40
2023-05-02T06:42:41.931Z,78.80
2023-05-02T06:45:23.534Z,78.60
2023-05-02T06:47:50.745Z,77.90
2023-05-02T06:50:18.113Z,77.70
2023-05-02T06:52:45.305Z,77.80
2023-05-02T06:55:12.334Z,77.70
2023-05-02T06:57:39.540Z,77.40
2023-05-02T07:00:07.542Z,76.50
2023-05-02T07:02:34.696Z,76.80
2023-05-02T07:05:01.779Z,77.70
2023-05-02T07:07:28.977Z,76.50
2023-05-02T07:09:56.168Z,76.50
2023-05-02T07:12:23.273Z,75.00
2023-05-02T07:14:50.529Z,75.90
2023-05-02T07:17:18.237Z,75.50
2023-05-02T07:19:45.772Z,75.80
2023-05-02T07:22:13.498Z,75.70
2023-05-02T07:24:41.921Z,73.70
2023-05-02T07:27:10.676Z,73.90
2023-05-02T07:29:38.092Z,72.90
2023-05-02T07:32:06.604Z,72.90
2023-05-02T07:34:33.766Z,72.20
2023-05-02T07:37:00.943Z,72.00
2023-05-02T07:39:28.179Z,72.30
2023-05-02T07:41:56.568Z,73.80
2023-05-02T07:44:24.282Z,70.90
2023-05-02T07:46:52.677Z,69.90
2023-05-02T07:49:20.530Z,68.80
2023-05-02T07:51:47.903Z,69.00
2023-05-02T07:54:22.298Z,67.90
2023-05-02T07:56:49.387Z,68.50
2023-05-02T07:59:16.433Z,69.70
2023-05-02T08:01:44.333Z,69.50
2023-05-02T08:04:13.155Z,69.20
2023-05-02T08:06:41.046Z,69.60
2023-05-02T08:09:09.322Z,69.40
2023-05-02T08:11:36.529Z,69.40
2023-05-02T08:14:03.657Z,69.80
2023-05-02T08:16:30.873Z,69.10
2023-05-02T08:18:58.011Z,69.30
2023-05-02T08:21:25.121Z,70.40
2023-05-02T08:23:52.206Z,71.20
2023-05-02T08:26:21.848Z,71.90
2023-05-02T08:28:49.007Z,68.90
2023-05-02T08:31:16.218Z,67.80
2023-05-02T08:33:43.907Z,66.60
2023-05-02T08:36:16.479Z,65.90
2023-05-02T08:38:45.881Z,65.10
2023-05-02T08:41:18.550Z,69.00
2023-05-02T08:43:47.119Z,64.10
2023-05-02T08:46:16.277Z,64.50
2023-05-02T08:48:45.940Z,63.40
2023-05-02T08:51:16.847Z,63.00
2023-05-02T08:53:45.122Z,61.70
2023-05-02T08:56:13.147Z,62.10
2023-05-02T08:58:41.562Z,62.40
2023-05-02T09:01:21.885Z,62.70
2023-05-02T09:03:49.517Z,63.60
2023-05-02T09:06:22.620Z,62.30
2023-05-02T09:08:54.830Z,63.80
2023-05-02T09:11:22.287Z,63.90
2023-05-02T09:13:52.318Z,63.00
2023-05-02T09:16:25.790Z,62.60
2023-05-02T09:18:58.681Z,61.80
2023-05-02T09:21:35.840Z,61.80
2023-05-02T09:24:18.391Z,60.60
2023-05-02T09:27:05.214Z,61.70
2023-05-02T09:29:38.979Z,60.60
2023-05-02T09:32:07.209Z,62.60
2023-05-02T09:34:34.818Z,59.50
2023-05-02T09:37:04.121Z,59.70
2023-05-02T09:39:31.578Z,59.10
2023-05-02T09:41:59.611Z,58.30
2023-05-02T09:44:36.970Z,58.30
2023-05-02T09:47:04.306Z,58.90
2023-05-02T09:49:45.444Z,58.70
2023-05-02T09:52:18.570Z,58.40
2023-05-02T09:54:50.737Z,59.40
2023-05-02T09:57:18.054Z,59.00
2023-05-02T09:59:57.142Z,58.80
2023-05-02T10:02:28.163Z,58.20
2023-05-02T10:04:59.225Z,56.20
2023-05-02T10:07:27.120Z,56.80
2023-05-02T10:09:58.637Z,56.90
2023-05-02T10:12:28.191Z,59.50
2023-05-02T10:15:01.436Z,58.60
2023-05-02T10:17:37.125Z,58.50
2023-05-02T10:20:06.902Z,56.70
2023-05-02T10:22:35.493Z,55.70
2023-05-02T10:25:04.105Z,57.40
2023-05-02T10:27:32.602Z,55.70
2023-05-02T10:30:01.536Z,54.50
2023-05-02T10:32:29.773Z,54.40
2023-05-02T10:35:06.044Z,54.40
2023-05-02T10:37:36.751Z,55.00
2023-05-02T10:40:06.634Z,54.70
2023-05-02T10:42:40.480Z,53.80
2023-05-02T10:45:35.405Z,56.10
2023-05-02T10:48:25.112Z,53.30
2023-05-02T10:51:04.227Z,53.40
2023-05-02T10:53:36.915Z,52.80
2023-05-02T10:56:10.283Z,53.30
2023-05-02T10:58:37.718Z,53.80
2023-05-02T11:01:29.797Z,54.60
2023-05-02T11:04:09.324Z,52.80
2023-05-02T11:06:59.579Z,52.80
2023-05-02T11:09:29.480Z,52.90
2023-05-02T11:11:57.545Z,53.70
2023-05-02T11:14:29.256Z,56.00
2023-05-02T11:17:01.829Z,53.60
2023-05-02T11:19:31.644Z,53.60
2023-05-02T11:22:20.717Z,52.90
2023-05-02T11:24:49.672Z,52.80
2023-05-02T11:27:33.473Z,53.60
2023-05-02T11:30:02.291Z,52.70
2023-05-02T11:32:45.443Z,52.60
2023-05-02T11:35:18.889Z,51.20
2023-05-02T11:37:59.456Z,49.80
2023-05-02T11:40:28.304Z,49.70
2023-05-02T11:42:57.147Z,50.30
2023-05-02T11:45:36.940Z,50.70
2023-05-02T11:48:09.233Z,48.80
2023-05-02T11:50:52.392Z,48.70
2023-05-02T11:53:25.918Z,51.20
2023-05-02T11:56:05.012Z,49.90
2023-05-02T11:58:34.167Z,50.60
2023-05-02T12:01:17.501Z,49.80
2023-05-02T12:03:45.451Z,48.60
2023-05-02T12:06:16.048Z,48.90
2023-05-02T12:08:44.906Z,48.70
2023-05-02T12:11:16.570Z,48.10
2023-05-02T12:13:49.883Z,48.80
2023-05-02T12:16:18.332Z,48.70
2023-05-02T12:18:47.460Z,48.90
2023-05-02T12:21:14.854Z,48.90
2023-05-02T12:23:42.487Z,47.60
2023-05-02T12:26:29.578Z,47.40
2023-05-02T12:28:58.226Z,48.40
2023-05-02T12:31:28.077Z,47.90
2023-05-02T12:33:57.845Z,47.00
2023-05-02T12:36:25.850Z,47.50
2023-05-02T12:38:57.227Z,48.10
2023-05-02T12:41:37.047Z,48.10
2023-05-02T12:44:06.137Z,49.10
2023-05-02T12:46:33.371Z,49.10
2023-05-02T12:49:09.850Z,49.80
2023-05-02T12:51:39.040Z,49.60
2023-05-02T12:54:07.130Z,47.20
2023-05-02T12:56:41.815Z,48.10
2023-05-02T12:59:09.576Z,47.70
2023-05-02T13:01:36.759Z,47.80
2023-05-02T13:04:05.649Z,47.90
2023-05-02T13:06:33.024Z,46.60
2023-05-02T13:09:00.227Z,46.10
2023-05-02T13:11:28.088Z,47.00
2023-05-02T13:13:55.844Z,46.30
2023-05-02T13:16:23.086Z,46.20
2023-05-02T13:18:50.417Z,47.30
2023-05-02T13:21:17.540Z,45.00
2023-05-02T13:23:47.596Z,45.90
2023-05-02T13:26:15.091Z,46.30
2023-05-02T13:28:42.166Z,47.80
2023-05-02T13:31:09.280Z,47.60
2023-05-02T13:33:36.415Z,48.30
2023-05-02T13:36:03.667Z,47.50
2023-05-02T13:38:31.020Z,47.60
2023-05-02T13:40:58.094Z,46.30
2023-05-02T13:43:25.315Z,44.80
2023-05-02T13:45:52.834Z,42.70
2023-05-02T13:48:20.123Z,43.10
2023-05-02T13:50:47.227Z,44.40
2023-05-02T13:53:14.405Z,46.40
2023-05-02T13:55:41.848Z,44.20
2023-05-02T13:58:08.989Z,45.20
2023-05-02T14:00:36.245Z,45.00
2023-05-02T14:03:03.542Z,44.50
2023-05-02T14:05:30.783Z,45.50
2023-05-02T14:07:57.880Z,45.30
2023-05-02T14:10:25.555Z,43.30
2023-05-02T14:12:53.558Z,42.90
2023-05-02T14:15:21.061Z,42.40
2023-05-02T14:17:50.074Z,44.10
2023-05-02T14:20:17.437Z,44.00
2023-05-02T14:22:44.610Z,44.20
2023-05-02T14:25:12.857Z,44.00
2023-05-02T14:27:39.937Z,43.00
2023-05-02T14:30:08.429Z,44.70
2023-05-02T14:32:35.904Z,43.10
2023-05-02T14:35:03.196Z,42.50
2023-05-02T14:37:30.494Z,42.90
2023-05-02T14:39:59.279Z,43.10
2023-05-02T14:42:26.634Z,42.50
2023-05-02T14:44:53.675Z,41.50
2023-05-02T14:47:21.131Z,40.70
2023-05-02T14:49:48.277Z,42.60
2023-05-02T14:52:15.391Z,41.60
2023-05-02T14:54:42.512Z,43.30
2023-05-02T14:57:09.744Z,41.10
2023-05-02T14:59:38.631Z,42.50
2023-05-02T15:02:06.192Z,40.20
2023-05-02T15:04:33.538Z,40.50
2023-05-02T15:07:01.526Z,39.30
2023-05-02T15:09:29.204Z,40.60
2023-05-02T15:11:56.776Z,38.70
2023-05-02T15:14:23.978Z,39.20
2023-05-02T15:16:51.461Z,38.50
2023-05-02T15:19:18.545Z,37.20
2023-05-02T15:21:45.625Z,35.90
2023-05-02T15:24:12.708Z,36.40
2023-05-02T15:26:41.076Z,36.40
2023-05-02T15:29:08.190Z,36.90
2023-05-02T15:31:35.650Z,36.10
2023-05-02T15:34:03.182Z,36.20
2023-05-02T15:36:31.050Z,36.00
2023-05-02T15:38:58.399Z,36.00
2023-05-02T15:41:28.779Z,36.20
2023-05-02T15:43:57.165Z,37.00
2023-05-02T15:46:24.821Z,36.50
2023-05-02T15:48:52.411Z,35.90
2023-05-02T15:51:19.513Z,37.20
2023-05-02T15:53:49.904Z,38.10
2023-05-02T15:56:17.028Z,37.30
2023-05-02T15:58:44.274Z,36.00
2023-05-02T16:01:11.404Z,36.00
2023-05-02T16:03:38.783Z,35.50
2023-05-02T16:06:07.645Z,35.90
2023-05-02T16:08:34.848Z,34.90
2023-05-02T16:11:01.930Z,36.60
2023-05-02T16:13:29.100Z,36.50
2023-05-02T16:15:56.293Z,35.80
2023-05-02T16:18:28.066Z,36.20
2023-05-02T16:20:58.510Z,35.70
2023-05-02T16:23:26.382Z,36.00
2023-05-02T16:26:01.667Z,35.40
2023-05-02T16:28:29.402Z,36.00
2023-05-02T16:30:56.810Z,36.70
2023-05-02T16:33:24.127Z,36.70
2023-05-02T16:36:02.077Z,37.20
2023-05-02T16:38:29.330Z,37.10
2023-05-02T16:40:57.352Z,36.30
2023-05-02T16:43:24.808Z,35.10
2023-05-02T16:46:06.857Z,36.10
2023-05-02T16:48:35.316Z,36.20
2023-05-02T16:51:04.254Z,36.40
2023-05-02T16:53:31.982Z,36.30
2023-05-02T16:55:59.766Z,37.90
2023-05-02T16:58:29.190Z,38.90
2023-05-02T17:00:56.845Z,38.80
2023-05-02T17:03:24.087Z,41.00
2023-05-02T17:05:51.246Z,40.20
2023-05-02T17:08:18.288Z,40.60
2023-05-02T17:10:50.193Z,41.30
2023-05-02T17:13:17.339Z,41.90
2023-05-02T17:15:44.460Z,42.30
2023-05-02T17:18:11.787Z,42.90
2023-05-02T17:20:39.221Z,42.50
2023-05-02T17:23:06.387Z,43.10
2023-05-02T17:25:33.480Z,43.40
2023-05-02T17:28:00.543Z,44.30
2023-05-02T17:30:29.060Z,44.00
2023-05-02T17:32:56.428Z,44.50
2023-05-02T17:35:23.573Z,44.40
2023-05-02T17:37:50.650Z,44.00
2023-05-02T17:40:18.070Z,43.90
2023-05-02T17:42:48.984Z,44.50
2023-05-02T17:45:16.791Z,45.80
2023-05-02T17:47:43.932Z,45.80
2023-05-02T17:50:11.759Z,46.90
2023-05-02T17:52:39.533Z,47.10
2023-05-02T17:55:08.382Z,47.40
2023-05-02T17:57:35.713Z,46.90
2023-05-02T18:00:04.618Z,47.90
2023-05-02T18:02:33.547Z,48.50
2023-05-02T18:05:03.056Z,49.10
2023-05-02T18:07:31.843Z,49.60
2023-05-02T18:10:02.212Z,48.90
2023-05-02T18:12:29.953Z,49.70
2023-05-02T18:14:57.100Z,50.30
2023-05-02T18:17:24.618Z,49.60
2023-05-02T18:19:51.730Z,49.70
2023-05-02T18:22:21.303Z,50.90
2023-05-02T18:24:49.645Z,50.60
2023-05-02T18:27:17.682Z,50.40
2023-05-02T18:29:44.884Z,50.70
2023-05-02T18:32:12.047Z,51.10
2023-05-02T18:34:39.334Z,50.80
2023-05-02T18:37:07.069Z,51.20
2023-05-02T18:39:35.370Z,51.30
2023-05-02T18:42:04.150Z,51.60
2023-05-02T18:44:31.788Z,52.10
2023-05-02T18:46:59.299Z,51.80
2023-05-02T18:49:26.755Z,52.50
2023-05-02T18:51:57.660Z,52.80
2023-05-02T18:54:24.893Z,53.00
2023-05-02T18:56:52.020Z,53.20
2023-05-02T18:59:19.242Z,53.40
2023-05-02T19:01:50.111Z,53.80
2023-05-02T19:04:17.243Z,54.10
2023-05-02T19:06:45.869Z,54.30
2023-05-02T19:09:15.613Z,54.80
2023-05-02T19:11:42.888Z,54.50
2023-05-02T19:14:11.907Z,55.00
2023-05-02T19:16:40.540Z,55.40
2023-05-02T19:19:08.509Z,55.50
2023-05-02T19:21:36.129Z,55.80
2023-05-02T19:24:03.962Z,55.60
2023-05-02T19:26:31.104Z,55.70
2023-05-02T19:28:58.469Z,55.80
2023-05-02T19:31:25.870Z,56.20
2023-05-02T19:33:53.081Z,56.40
2023-05-02T19:36:24.226Z,56.50
2023-05-02T19:38:53.931Z,56.60
2023-05-02T19:41:24.903Z,56.70
2023-05-02T19:43:52.649Z,56.70
2023-05-02T19:46:20.607Z,57.00
2023-05-02T19:48:47.850Z,57.20
2023-05-02T19:51:14.901Z,57.60
2023-05-02T19:53:42.121Z,57.90
2023-05-02T19:56:09.222Z,58.10
2023-05-02T19:58:36.425Z,58.30
2023-05-02T20:01:03.873Z,58.70
2023-05-02T20:03:31.287Z,58.70
2023-05-02T20:05:58.793Z,58.70
2023-05-02T20:08:27.957Z,58.90
2023-05-02T20:10:56.274Z,58.90
2023-05-02T20:13:23.719Z,59.00
2023-05-02T20:15:52.782Z,59.60
2023-05-02T20:18:20.821Z,59.40
2023-05-02T20:20:47.926Z,59.40
2023-05-02T20:23:16.046Z,60.10
2023-05-02T20:25:43.782Z,60.50
2023-05-02T20:28:11.044Z,62.00
2023-05-02T20:30:42.059Z,62.80
2023-05-02T20:33:15.537Z,62.60
2023-05-02T20:35:44.273Z,62.80
2023-05-02T20:38:12.106Z,63.70
2023-05-02T20:40:40.730Z,64.20
2023-05-02T20:43:07.924Z,64.30
2023-05-02T20:45:35.224Z,65.00
2023-05-02T20:48:02.322Z,65.00
2023-05-02T20:50:29.607Z,65.60
2023-05-02T20:52:56.695Z,65.70
2023-05-02T20:55:24.595Z,65.00
2023-05-02T20:57:53.213Z,66.10
2023-05-02T21:00:22.755Z,66.30
2023-05-02T21:02:50.087Z,66.20
2023-05-02T21:05:17.270Z,66.90
2023-05-02T21:07:44.872Z,67.80
2023-05-02T21:10:12.164Z,67.60
2023-05-02T21:12:39.550Z,67.90
2023-05-02T21:15:08.275Z,68.10
2023-05-02T21:17:35.712Z,68.50
2023-05-02T21:20:03.187Z,67.80
2023-05-02T21:22:30.436Z,69.10
2023-05-02T21:24:57.536Z,68.50
2023-05-02T21:27:24.823Z,68.50
2023-05-02T21:29:54.861Z,68.50
2023-05-02T21:32:22.471Z,68.40
2023-05-02T21:34:49.657Z,68.40
2023-05-02T21:37:16.760Z,67.50
2023-05-02T21:39:43.904Z,68.20
2023-05-02T21:42:10.925Z,68.30
2023-05-02T21:44:38.070Z,67.70
2023-05-02T21:47:05.236Z,67.00
2023-05-02T21:49:32.497Z,66.90
2023-05-02T21:51:59.732Z,67.80
2023-05-02T21:54:26.884Z,67.60
2023-05-02T21:56:54.395Z,67.20
2023-05-02T21:59:21.569Z,66.80
2023-05-02T22:01:48.778Z,65.60
2023-05-02T22:04:16.624Z,65.40
2023-05-02T22:06:49.983Z,65.10
2023-05-02T22:09:18.362Z,65.00
2023-05-02T22:11:45.589Z,65.00
2023-05-02T22:14:13.200Z,64.20
2023-05-02T22:16:40.405Z,64.10
2023-05-02T22:19:07.598Z,64.20
2023-05-02T22:21:34.751Z,63.70
2023-05-02T22:24:01.824Z,63.70
2023-05-02T22:26:28.994Z,64.20
2023-05-02T22:28:56.094Z,63.30
2023-05-02T22:31:23.214Z,63.40
2023-05-02T22:33:50.412Z,63.60
2023-05-02T22:36:18.012Z,63.70
2023-05-02T22:38:45.118Z,64.00
2023-05-02T22:41:12.188Z,63.80
2023-05-02T22:43:39.323Z,63.60
2023-05-02T22:46:07.040Z,64.00
2023-05-02T22:48:34.251Z,64.20
2023-05-02T22:51:01.609Z,64.40
2023-05-02T22:53:30.174Z,64.20
2023-05-02T22:55:57.340Z,65.00
2023-05-02T22:58:24.568Z,65.50
2023-05-02T23:00:51.920Z,64.70
2023-05-02T23:03:19.159Z,64.80
2023-05-02T23:05:47.034Z,65.40
2023-05-02T23:08:14.712Z,65.00
2023-05-02T23:10:41.773Z,65.80
2023-05-02T23:13:08.968Z,65.00
2023-05-02T23:15:36.421Z,65.40
2023-05-02T23:18:03.910Z,65.30
2023-05-02T23:20:33.337Z,65.20
2023-05-02T23:23:01.743Z,65.80
2023-05-02T23:25:29.941Z,67.00
2023-05-02T23:27:57.021Z,66.50
2023-05-02T23:30:24.193Z,66.50
2023-05-02T23:32:51.755Z,66.20
2023-05-02T23:35:19.057Z,66.60
2023-05-02T23:37:46.283Z,66.90
2023-05-02T23:40:13.493Z,66.80
2023-05-02T23:42:40.973Z,66.50
2023-05-02T23:45:09.500Z,66.60
2023-05-02T23:47:37.946Z,66.90
2023-05-02T23:50:06.307Z,66.50
2023-05-02T23:52:33.911Z,66.90
2023-05-02T23:55:01.080Z,66.90
2023-05-02T23:57:30.524Z,66.90
2023-05-02T23:59:57.627Z,67.90
